Fort Leonard Wood, Missouri
Current Conditions -  °F | °C
As of 12:58 AM on Wednesday 22 Oct 2014 (Local Time) from KTBN Reporting Station
Clear Clear  
Wind Chill: 51°   Ceiling: Unl
Heat Index: 51°   Visibility: 10mi
Dew Point: 46°   Wind: 6mph
Humidity: 85%   Direction: 100°E
Pressure: 30.17"   Gusts: NA
Location:  37.77°N, 92.12°W
Report Text: KTBN 220558Z AUTO 10005KT 10SM CLR 10/08 A3017 RMK AO2 SLP216 T01030078 10170 20103 402230063 51004
Loading
Personal Weather Stations






























Interactive Weather Map
Tropical Storm Tracking
New forecast layout! Learn more

10-Day Weather Forecast

Advertisements
Track Severe Weather on mobile